EAG5501 FQMA-FAOR
Flight info
| Callsign | EAG5501 |
|---|---|
| Flight time | 0h 45m |
| Altitude | 30000 |
| Route | ANVAK DCT IMKAN UT446 IBGUB |
| Aircraft | B38M/M-SDE1FGHILORVWXY/HB1 |
Departure
| Time | 2026-04-22 22:54 |
|---|---|
| Airport | Maputo Airport (FQMA) |
Arrival
| Time | 2026-04-22 23:39 |
|---|---|
| Airport | O.R. Tambo International Airport (FAOR) |
| Time | Latitude | Longitude | Altitude | Speed | Heading |
|---|---|---|---|---|---|
| 2026-04-22 22:45 | -25.92312 | 32.57398 | 131 ft | 0 kts | 122° |
| 2026-04-22 22:46 | -25.92304 | 32.57384 | 127 ft | 4 kts | 116° |
| 2026-04-22 22:46 | -25.92296 | 32.57356 | 125 ft | 4 kts | 92° |
| 2026-04-22 22:47 | -25.92302 | 32.57332 | 128 ft | 4 kts | 41° |
| 2026-04-22 22:47 | -25.92307 | 32.57327 | 125 ft | 1 kts | 29° |
| 2026-04-22 22:49 | -25.92291 | 32.57337 | 126 ft | 8 kts | 29° |
| 2026-04-22 22:50 | -25.92207 | 32.57388 | 132 ft | 17 kts | 28° |
| 2026-04-22 22:50 | -25.92095 | 32.57450 | 132 ft | 19 kts | 31° |
| 2026-04-22 22:50 | -25.91966 | 32.57534 | 132 ft | 24 kts | 30° |
| 2026-04-22 22:50 | -25.91812 | 32.57629 | 132 ft | 27 kts | 29° |
| 2026-04-22 22:51 | -25.91645 | 32.57731 | 133 ft | 28 kts | 29° |
| 2026-04-22 22:51 | -25.91468 | 32.57840 | 134 ft | 30 kts | 29° |
| 2026-04-22 22:51 | -25.91281 | 32.57952 | 135 ft | 31 kts | 29° |
| 2026-04-22 22:51 | -25.91089 | 32.58070 | 136 ft | 32 kts | 28° |
| 2026-04-22 22:52 | -25.90887 | 32.58196 | 136 ft | 34 kts | 30° |
| 2026-04-22 22:52 | -25.90676 | 32.58324 | 137 ft | 35 kts | 28° |
| 2026-04-22 22:52 | -25.90461 | 32.58452 | 138 ft | 29 kts | 25° |
| 2026-04-22 22:52 | -25.90386 | 32.58395 | 138 ft | 14 kts | 299° |
| 2026-04-22 22:53 | -25.90371 | 32.58300 | 138 ft | 12 kts | 226° |
| 2026-04-22 22:53 | -25.90499 | 32.58221 | 136 ft | 51 kts | 208° |
| 2026-04-22 22:53 | -25.91073 | 32.57869 | 136 ft | 134 kts | 209° |
| 2026-04-22 22:53 | -25.92064 | 32.57252 | 426 ft | 182 kts | 210° |
| 2026-04-22 22:54 | -25.93195 | 32.56437 | 1260 ft | 208 kts | 217° |
| 2026-04-22 22:54 | -25.94032 | 32.55092 | 2543 ft | 228 kts | 242° |
| 2026-04-22 22:54 | -25.94237 | 32.53216 | 3379 ft | 262 kts | 266° |
| 2026-04-22 22:54 | -25.94132 | 32.51125 | 4240 ft | 279 kts | 267° |
| 2026-04-22 22:55 | -25.93996 | 32.48969 | 5300 ft | 287 kts | 275° |
| 2026-04-22 22:55 | -25.93292 | 32.46871 | 6445 ft | 294 kts | 302° |
| 2026-04-22 22:55 | -25.91000 | 32.43004 | 8634 ft | 296 kts | 302° |
| 2026-04-22 22:56 | -25.89926 | 32.41090 | 9987 ft | 288 kts | 302° |
| 2026-04-22 22:56 | -25.88872 | 32.39192 | 11009 ft | 291 kts | 301° |
| 2026-04-22 22:56 | -25.87817 | 32.37273 | 11863 ft | 296 kts | 301° |
| 2026-04-22 22:56 | -25.86742 | 32.35310 | 12838 ft | 297 kts | 300° |
| 2026-04-22 22:57 | -25.85654 | 32.33324 | 13621 ft | 306 kts | 300° |
| 2026-04-22 22:57 | -25.84531 | 32.31266 | 14324 ft | 313 kts | 300° |
| 2026-04-22 22:57 | -25.83411 | 32.29215 | 15303 ft | 308 kts | 299° |
| 2026-04-22 22:57 | -25.82305 | 32.27194 | 16230 ft | 306 kts | 299° |
| 2026-04-22 22:58 | -25.81204 | 32.25180 | 16965 ft | 310 kts | 299° |
| 2026-04-22 22:58 | -25.80076 | 32.23119 | 17703 ft | 314 kts | 299° |
| 2026-04-22 22:58 | -25.78938 | 32.21039 | 18470 ft | 316 kts | 299° |
| 2026-04-22 22:58 | -25.77792 | 32.18949 | 19151 ft | 317 kts | 300° |
| 2026-04-22 22:59 | -25.76635 | 32.16839 | 19766 ft | 321 kts | 300° |
| 2026-04-22 22:59 | -25.75468 | 32.14712 | 20380 ft | 324 kts | 301° |
| 2026-04-22 22:59 | -25.74294 | 32.12570 | 20967 ft | 327 kts | 301° |
| 2026-04-22 22:59 | -25.73116 | 32.10424 | 21551 ft | 330 kts | 302° |
| 2026-04-22 23:00 | -25.71918 | 32.08242 | 22136 ft | 333 kts | 302° |
| 2026-04-22 23:00 | -25.70705 | 32.06032 | 22704 ft | 336 kts | 302° |
| 2026-04-22 23:00 | -25.69484 | 32.03809 | 23255 ft | 339 kts | 303° |
| 2026-04-22 23:00 | -25.68250 | 32.01564 | 23812 ft | 342 kts | 303° |
| 2026-04-22 23:01 | -25.67096 | 31.99277 | 24264 ft | 346 kts | 294° |
| 2026-04-22 23:01 | -25.66292 | 31.96757 | 24770 ft | 347 kts | 293° |
| 2026-04-22 23:01 | -25.65463 | 31.94238 | 25270 ft | 348 kts | 293° |
| 2026-04-22 23:01 | -25.64639 | 31.91720 | 25763 ft | 348 kts | 293° |
| 2026-04-22 23:02 | -25.63816 | 31.89197 | 26255 ft | 348 kts | 292° |
| 2026-04-22 23:02 | -25.62989 | 31.86663 | 26746 ft | 349 kts | 292° |
| 2026-04-22 23:02 | -25.62163 | 31.84131 | 27239 ft | 349 kts | 292° |
| 2026-04-22 23:02 | -25.61347 | 31.81631 | 27693 ft | 350 kts | 292° |
| 2026-04-22 23:03 | -25.60517 | 31.79093 | 28160 ft | 351 kts | 292° |
| 2026-04-22 23:03 | -25.59677 | 31.76525 | 28575 ft | 353 kts | 292° |
| 2026-04-22 23:03 | -25.58838 | 31.73959 | 29015 ft | 354 kts | 292° |
| 2026-04-22 23:03 | -25.58009 | 31.71427 | 29453 ft | 355 kts | 292° |
| 2026-04-22 23:04 | -25.57162 | 31.68840 | 29872 ft | 356 kts | 292° |
| 2026-04-22 23:04 | -25.56314 | 31.66255 | 30234 ft | 358 kts | 292° |
| 2026-04-22 23:04 | -25.54564 | 31.60920 | 30267 ft | 378 kts | 292° |
| 2026-04-22 23:05 | -25.52722 | 31.55317 | 30275 ft | 396 kts | 292° |
| 2026-04-22 23:05 | -25.50811 | 31.49509 | 30264 ft | 412 kts | 291° |
| 2026-04-22 23:06 | -25.48817 | 31.43460 | 30274 ft | 424 kts | 291° |
| 2026-04-22 23:06 | -25.46780 | 31.37287 | 30301 ft | 426 kts | 291° |
| 2026-04-22 23:07 | -25.44754 | 31.31159 | 30319 ft | 426 kts | 291° |
| 2026-04-22 23:07 | -25.42715 | 31.25005 | 30335 ft | 426 kts | 291° |
| 2026-04-22 23:08 | -25.40668 | 31.18831 | 30347 ft | 428 kts | 292° |
| 2026-04-22 23:08 | -25.38821 | 31.12572 | 30321 ft | 431 kts | 281° |
| 2026-04-22 23:09 | -25.38796 | 31.09233 | 30350 ft | 438 kts | 266° |
| 2026-04-22 23:09 | -25.39449 | 31.05953 | 30350 ft | 443 kts | 261° |
| 2026-04-22 23:09 | -25.40964 | 30.99319 | 30344 ft | 445 kts | 261° |
| 2026-04-22 23:10 | -25.42539 | 30.92701 | 30296 ft | 446 kts | 260° |
| 2026-04-22 23:10 | -25.44134 | 30.86048 | 30295 ft | 446 kts | 260° |
| 2026-04-22 23:11 | -25.45713 | 30.79451 | 30291 ft | 446 kts | 261° |
| 2026-04-22 23:11 | -25.47303 | 30.72796 | 30305 ft | 446 kts | 260° |
| 2026-04-22 23:12 | -25.48889 | 30.66142 | 30299 ft | 445 kts | 261° |
| 2026-04-22 23:12 | -25.50471 | 30.59491 | 30304 ft | 446 kts | 261° |
| 2026-04-22 23:13 | -25.52046 | 30.52847 | 30307 ft | 447 kts | 261° |
| 2026-04-22 23:13 | -25.53494 | 30.46217 | 30294 ft | 440 kts | 268° |
| 2026-04-22 23:14 | -25.53496 | 30.42869 | 30320 ft | 432 kts | 279° |
| 2026-04-22 23:14 | -25.53292 | 30.39539 | 30317 ft | 435 kts | 277° |
| 2026-04-22 23:14 | -25.53022 | 30.32815 | 30310 ft | 438 kts | 277° |
| 2026-04-22 23:15 | -25.52767 | 30.26089 | 30305 ft | 436 kts | 276° |
| 2026-04-22 23:15 | -25.52513 | 30.19409 | 30306 ft | 436 kts | 276° |
| 2026-04-22 23:16 | -25.52253 | 30.12674 | 30307 ft | 436 kts | 276° |
| 2026-04-22 23:16 | -25.51991 | 30.05983 | 30300 ft | 439 kts | 277° |
| 2026-04-22 23:17 | -25.51725 | 29.99230 | 30301 ft | 439 kts | 277° |
| 2026-04-22 23:17 | -25.51455 | 29.92473 | 30290 ft | 439 kts | 277° |
| 2026-04-22 23:18 | -25.51184 | 29.85751 | 30293 ft | 439 kts | 277° |
| 2026-04-22 23:18 | -25.50907 | 29.78996 | 30291 ft | 441 kts | 277° |
| 2026-04-22 23:19 | -25.50956 | 29.72178 | 30271 ft | 450 kts | 265° |
| 2026-04-22 23:19 | -25.51914 | 29.68844 | 30280 ft | 462 kts | 251° |
| 2026-04-22 23:19 | -25.53630 | 29.65782 | 30281 ft | 475 kts | 238° |
| 2026-04-22 23:20 | -25.57550 | 29.59906 | 30279 ft | 473 kts | 241° |
| 2026-04-22 23:20 | -25.61304 | 29.53973 | 30285 ft | 473 kts | 242° |
| 2026-04-22 23:21 | -25.65087 | 29.47954 | 30295 ft | 478 kts | 241° |
| 2026-04-22 23:21 | -25.68869 | 29.41925 | 30305 ft | 478 kts | 241° |
| 2026-04-22 23:22 | -25.72664 | 29.35869 | 30311 ft | 478 kts | 241° |
| 2026-04-22 23:22 | -25.74558 | 29.32844 | 29840 ft | 474 kts | 241° |
| 2026-04-22 23:22 | -25.76446 | 29.29814 | 28853 ft | 476 kts | 241° |
| 2026-04-22 23:23 | -25.78301 | 29.26837 | 27954 ft | 475 kts | 241° |
| 2026-04-22 23:23 | -25.80185 | 29.23813 | 27027 ft | 473 kts | 241° |
| 2026-04-22 23:23 | -25.82037 | 29.20839 | 26153 ft | 460 kts | 241° |
| 2026-04-22 23:23 | -25.83836 | 29.17965 | 25456 ft | 442 kts | 240° |
| 2026-04-22 23:24 | -25.85572 | 29.15188 | 24843 ft | 435 kts | 240° |
| 2026-04-22 23:24 | -25.87265 | 29.12470 | 24156 ft | 432 kts | 240° |
| 2026-04-22 23:24 | -25.88970 | 29.09732 | 23394 ft | 428 kts | 240° |
| 2026-04-22 23:24 | -25.90661 | 29.07019 | 22680 ft | 423 kts | 239° |
| 2026-04-22 23:25 | -25.92332 | 29.04341 | 22015 ft | 419 kts | 239° |
| 2026-04-22 23:25 | -25.93982 | 29.01692 | 21369 ft | 415 kts | 239° |
| 2026-04-22 23:25 | -25.95606 | 28.99082 | 20742 ft | 412 kts | 239° |
| 2026-04-22 23:25 | -25.97233 | 28.96468 | 20097 ft | 411 kts | 238° |
| 2026-04-22 23:26 | -25.98872 | 28.93823 | 19447 ft | 418 kts | 238° |
| 2026-04-22 23:26 | -26.00528 | 28.91154 | 18792 ft | 420 kts | 238° |
| 2026-04-22 23:26 | -26.02190 | 28.88472 | 18062 ft | 422 kts | 237° |
| 2026-04-22 23:26 | -26.03854 | 28.85785 | 17394 ft | 421 kts | 237° |
| 2026-04-22 23:27 | -26.05511 | 28.83109 | 16747 ft | 419 kts | 237° |
| 2026-04-22 23:27 | -26.07158 | 28.80449 | 16106 ft | 416 kts | 237° |
| 2026-04-22 23:28 | -26.11885 | 28.72805 | 14290 ft | 409 kts | 237° |
| 2026-04-22 23:28 | -26.13494 | 28.70200 | 13829 ft | 400 kts | 236° |
| 2026-04-22 23:28 | -26.15024 | 28.67729 | 13628 ft | 374 kts | 236° |
| 2026-04-22 23:28 | -26.16438 | 28.65445 | 13457 ft | 352 kts | 236° |
| 2026-04-22 23:29 | -26.17786 | 28.63264 | 13276 ft | 331 kts | 237° |
| 2026-04-22 23:29 | -26.19053 | 28.61210 | 13104 ft | 313 kts | 237° |
| 2026-04-22 23:29 | -26.20250 | 28.59270 | 12947 ft | 295 kts | 236° |
| 2026-04-22 23:29 | -26.21379 | 28.57437 | 12805 ft | 279 kts | 237° |
| 2026-04-22 23:30 | -26.22445 | 28.55706 | 12664 ft | 263 kts | 237° |
| 2026-04-22 23:30 | -26.23448 | 28.54076 | 12531 ft | 247 kts | 237° |
| 2026-04-22 23:30 | -26.24411 | 28.52508 | 12413 ft | 247 kts | 237° |
| 2026-04-22 23:30 | -26.25394 | 28.50905 | 12330 ft | 253 kts | 237° |
| 2026-04-22 23:31 | -26.26397 | 28.49272 | 12241 ft | 256 kts | 236° |
| 2026-04-22 23:31 | -26.27394 | 28.47645 | 12120 ft | 257 kts | 237° |
| 2026-04-22 23:31 | -26.28405 | 28.45997 | 11979 ft | 257 kts | 237° |
| 2026-04-22 23:31 | -26.29418 | 28.44347 | 11852 ft | 257 kts | 237° |
| 2026-04-22 23:32 | -26.30429 | 28.42696 | 11733 ft | 257 kts | 237° |
| 2026-04-22 23:32 | -26.31439 | 28.41046 | 11606 ft | 257 kts | 236° |
| 2026-04-22 23:32 | -26.32443 | 28.39406 | 11476 ft | 253 kts | 237° |
| 2026-04-22 23:32 | -26.33135 | 28.37689 | 11291 ft | 244 kts | 262° |
| 2026-04-22 23:33 | -26.33088 | 28.35831 | 11025 ft | 239 kts | 281° |
| 2026-04-22 23:33 | -26.32792 | 28.34010 | 10725 ft | 238 kts | 282° |
| 2026-04-22 23:33 | -26.32478 | 28.32199 | 10421 ft | 238 kts | 282° |
| 2026-04-22 23:33 | -26.32153 | 28.30402 | 10138 ft | 233 kts | 282° |
| 2026-04-22 23:34 | -26.31829 | 28.28652 | 9850 ft | 227 kts | 282° |
| 2026-04-22 23:34 | -26.31512 | 28.26966 | 9675 ft | 216 kts | 283° |
| 2026-04-22 23:34 | -26.31209 | 28.25376 | 9545 ft | 201 kts | 283° |
| 2026-04-22 23:34 | -26.30930 | 28.23921 | 9403 ft | 189 kts | 283° |
| 2026-04-22 23:35 | -26.30649 | 28.22463 | 9202 ft | 195 kts | 283° |
| 2026-04-22 23:35 | -26.30315 | 28.20973 | 8959 ft | 199 kts | 295° |
| 2026-04-22 23:35 | -26.29444 | 28.19817 | 8610 ft | 195 kts | 331° |
| 2026-04-22 23:35 | -26.28193 | 28.19401 | 8333 ft | 188 kts | 1° |
| 2026-04-22 23:36 | -26.26985 | 28.19596 | 8170 ft | 166 kts | 16° |
| 2026-04-22 23:36 | -26.25894 | 28.19924 | 7950 ft | 159 kts | 18° |
| 2026-04-22 23:36 | -26.24836 | 28.20257 | 7726 ft | 157 kts | 19° |
| 2026-04-22 23:36 | -26.23787 | 28.20585 | 7514 ft | 156 kts | 19° |
| 2026-04-22 23:37 | -26.22745 | 28.20911 | 7311 ft | 155 kts | 18° |
| 2026-04-22 23:37 | -26.21701 | 28.21236 | 7118 ft | 155 kts | 18° |
| 2026-04-22 23:37 | -26.20665 | 28.21560 | 6923 ft | 154 kts | 19° |
| 2026-04-22 23:37 | -26.19638 | 28.21879 | 6723 ft | 152 kts | 19° |
| 2026-04-22 23:38 | -26.18640 | 28.22190 | 6513 ft | 149 kts | 18° |
| 2026-04-22 23:38 | -26.17620 | 28.22508 | 6288 ft | 154 kts | 18° |
| 2026-04-22 23:38 | -26.16596 | 28.22824 | 6019 ft | 152 kts | 18° |
| 2026-04-22 23:38 | -26.15575 | 28.23142 | 5803 ft | 153 kts | 18° |
| 2026-04-22 23:39 | -26.14531 | 28.23469 | 5628 ft | 154 kts | 17° |
| 2026-04-22 23:39 | -26.13563 | 28.23771 | 5558 ft | 130 kts | 15° |
| 2026-04-22 23:39 | -26.12885 | 28.23979 | 5551 ft | 46 kts | 15° |
| 2026-04-22 23:39 | -26.12683 | 28.23985 | 5543 ft | 29 kts | 349° |
| 2026-04-22 23:40 | -26.12553 | 28.23930 | 5546 ft | 12 kts | 298° |
| 2026-04-22 23:40 | -26.12530 | 28.23837 | 5546 ft | 13 kts | 279° |
| 2026-04-22 23:40 | -26.12509 | 28.23738 | 5543 ft | 7 kts | 285° |
| 2026-04-22 23:40 | -26.12506 | 28.23728 | 5542 ft | 0 kts | 285° |